Time;durP1;ratioP1;P1;durP2;ratioP2;P2;SDS_P1;SDS_P2;PMS_P1;PMS_P2;Temp;Humidity;BMP_temperature;BMP_pressure;BME280_temperature;BME280_humidity;BME280_pressure;Samples;Min_cycle;Max_cycle;Signal;HPM_P1;HPM_P2
2022/11/10 00:00:57;;;;;;;15.27;13.88;;;9.70;99.90;;;;;;4214128;28;20079;-86
2022/11/10 00:03:17;;;;;;;12.07;11.18;;;9.70;99.90;;;;;;4230339;28;20046;-86
2022/11/10 00:05:37;;;;;;;10.55;10.05;;;9.80;99.90;;;;;;4235253;28;20369;-86
2022/11/10 00:08:02;;;;;;;11.55;10.93;;;9.90;99.90;;;;;;4237173;28;20430;-86
2022/11/10 00:10:22;;;;;;;10.57;9.88;;;9.90;99.90;;;;;;4231264;28;20043;-86
2022/11/10 00:12:42;;;;;;;11.90;10.77;;;10.00;99.90;;;;;;4231135;28;20047;-86
2022/11/10 00:17:42;;;;;;;30.85;22.45;;;10.00;99.90;;;;;;4236514;28;20047;-85
2022/11/10 00:20:03;;;;;;;21.42;19.30;;;9.90;99.90;;;;;;4229073;28;20405;-86
2022/11/10 00:22:23;;;;;;;18.55;16.77;;;9.90;99.90;;;;;;4215317;28;20082;-86
2022/11/10 00:24:45;;;;;;;15.80;14.50;;;10.00;99.90;;;;;;4226022;28;20055;-86
2022/11/10 00:27:05;;;;;;;15.75;14.32;;;10.00;99.90;;;;;;4225367;28;20043;-86
2022/11/10 00:29:25;;;;;;;18.33;16.25;;;10.10;99.90;;;;;;4228646;28;20093;-87
2022/11/10 00:31:45;;;;;;;18.90;16.92;;;10.10;99.90;;;;;;4226969;28;20107;-85
2022/11/10 00:34:06;;;;;;;13.52;12.73;;;10.00;99.90;;;;;;4228030;28;20051;-86
2022/11/10 00:36:26;;;;;;;11.80;11.18;;;10.00;99.90;;;;;;4231637;28;20149;-86
2022/11/10 00:38:49;;;;;;;10.82;9.93;;;10.00;99.90;;;;;;4225289;28;20239;-86
2022/11/10 00:41:09;;;;;;;;;;;10.10;99.90;;;;;;4230285;28;20144;-85
2022/11/10 00:43:29;;;;;;;27.40;19.80;;;10.10;99.90;;;;;;4227745;28;19985;-86
2022/11/10 00:45:49;;;;;;;23.13;19.85;;;10.00;99.90;;;;;;4223337;28;20085;-87
2022/11/10 00:48:09;;;;;;;22.42;20.30;;;10.00;99.90;;;;;;4227023;28;20039;-86
2022/11/10 00:50:29;;;;;;;20.60;18.35;;;9.90;99.90;;;;;;4227811;28;20112;-86
2022/11/10 00:52:48;;;;;;;25.70;16.98;;;9.70;99.90;;;;;;4230096;28;20431;-85
2022/11/10 00:55:08;;;;;;;20.65;16.95;;;9.70;99.90;;;;;;4231535;28;20112;-86
2022/11/10 00:57:28;;;;;;;17.83;16.02;;;9.60;99.90;;;;;;4231988;28;20219;-86
2022/11/10 00:59:47;;;;;;;14.10;13.07;;;9.60;99.90;;;;;;4230658;28;20054;-86
2022/11/10 01:02:07;;;;;;;12.50;11.43;;;9.60;99.90;;;;;;4229344;28;20043;-86
2022/11/10 01:04:27;;;;;;;12.38;11.45;;;9.70;99.90;;;;;;4218786;28;20078;-86
2022/11/10 01:06:47;;;;;;;15.38;13.63;;;9.80;99.90;;;;;;4230202;28;20043;-86
2022/11/10 01:09:07;;;;;;;16.98;15.60;;;9.80;99.90;;;;;;4217766;28;20084;-86
2022/11/10 01:11:27;;;;;;;19.95;17.85;;;9.70;99.90;;;;;;4230013;28;20051;-86
2022/11/10 01:13:50;;;;;;;17.65;16.25;;;9.70;99.90;;;;;;4231516;28;20051;-86
2022/11/10 01:16:12;;;;;;;18.33;16.73;;;9.60;99.90;;;;;;4228344;28;20442;-86
2022/11/10 01:18:33;;;;;;;16.73;15.25;;;9.60;99.90;;;;;;4230967;28;20269;-86
2022/11/10 01:20:53;;;;;;;17.05;15.73;;;9.60;99.90;;;;;;4227938;28;20079;-87
2022/11/10 01:23:12;;;;;;;16.17;14.90;;;9.70;99.90;;;;;;4226230;28;20081;-86
2022/11/10 01:25:32;;;;;;;18.08;16.40;;;9.70;99.90;;;;;;4215965;28;20047;-86
2022/11/10 01:27:52;;;;;;;15.88;14.57;;;9.80;99.90;;;;;;4224157;28;20089;-85
2022/11/10 01:30:12;;;;;;;17.33;15.80;;;9.80;99.90;;;;;;4215257;28;20056;-86
2022/11/10 01:32:32;;;;;;;17.58;16.10;;;9.80;99.90;;;;;;4224820;28;20043;-85
2022/11/10 01:34:52;;;;;;;22.08;15.43;;;9.80;99.90;;;;;;4215295;28;20085;-86
2022/11/10 01:37:12;;;;;;;15.35;14.18;;;9.70;99.90;;;;;;4228561;28;20039;-86
2022/11/10 01:39:31;;;;;;;11.98;11.07;;;9.80;99.90;;;;;;4213817;28;20059;-86
2022/11/10 01:41:51;;;;;;;11.23;10.45;;;9.80;99.90;;;;;;4227192;28;20084;-87
2022/11/10 01:44:22;;;;;;;11.27;10.60;;;9.80;99.90;;;;;;4232909;28;20070;-86
2022/11/10 01:46:43;;;;;;;10.63;10.10;;;9.80;99.90;;;;;;4231033;28;20390;-86
2022/11/10 01:49:03;;;;;;;9.85;9.30;;;9.90;99.90;;;;;;4230653;28;20103;-86
2022/11/10 01:51:36;;;;;;;10.02;9.20;;;10.00;99.90;;;;;;4229900;28;20077;-85
2022/11/10 01:54:04;;;;;;;9.88;9.18;;;10.00;99.90;;;;;;4217040;28;20070;-86
2022/11/10 01:56:27;;;;;;;9.15;8.55;;;10.00;99.90;;;;;;4215907;28;20102;-86
2022/11/10 01:58:50;;;;;;;;;;;10.10;99.90;;;;;;4233293;28;20053;-86
2022/11/10 02:01:10;;;;;;;11.05;10.45;;;10.10;99.90;;;;;;4217170;28;19997;-85
2022/11/10 02:03:40;;;;;;;12.05;11.07;;;10.10;99.90;;;;;;4228022;28;20145;-86
2022/11/10 02:06:00;;;;;;;14.45;13.18;;;10.10;99.90;;;;;;4228924;28;20042;-86
2022/11/10 02:08:22;;;;;;;14.10;12.95;;;10.10;99.90;;;;;;4233325;28;20047;-86
2022/11/10 02:10:43;;;;;;;14.82;13.55;;;10.10;99.90;;;;;;4215875;28;20055;-85
2022/11/10 02:13:03;;;;;;;15.27;13.85;;;10.10;99.90;;;;;;4230425;28;20140;-85
2022/11/10 02:15:23;;;;;;;14.40;13.30;;;10.10;99.90;;;;;;4234561;28;20046;-86
2022/11/10 02:17:45;;;;;;;16.50;15.10;;;10.00;99.90;;;;;;4237426;28;20046;-86
2022/11/10 02:20:08;;;;;;;16.40;15.00;;;10.00;99.90;;;;;;4217318;28;20054;-85
2022/11/10 02:22:28;;;;;;;20.50;16.50;;;10.00;99.90;;;;;;4225541;28;20035;-86
2022/11/10 02:24:49;;;;;;;15.95;14.35;;;10.00;99.90;;;;;;4218461;28;20063;-86
2022/11/10 02:27:08;;;;;;;15.57;14.18;;;10.00;99.90;;;;;;4224969;28;20066;-86
2022/11/10 02:29:29;;;;;;;16.38;14.88;;;10.00;99.90;;;;;;4221687;28;20046;-86
2022/11/10 02:31:48;;;;;;;24.33;18.83;;;10.00;99.90;;;;;;4234284;28;20093;-86
2022/11/10 02:34:08;;;;;;;17.13;15.68;;;10.10;99.90;;;;;;4215678;28;20086;-86
2022/11/10 02:36:28;;;;;;;14.95;13.43;;;10.10;99.90;;;;;;4230515;28;20043;-85
2022/11/10 02:38:48;;;;;;;14.35;13.13;;;10.00;99.90;;;;;;4228768;28;20047;-86
2022/11/10 02:41:09;;;;;;;16.17;14.73;;;10.00;99.90;;;;;;4232502;28;20101;-86
2022/11/10 02:43:29;;;;;;;13.30;12.43;;;10.00;99.90;;;;;;4236503;28;20105;-86
2022/11/10 02:45:49;;;;;;;14.18;12.90;;;10.00;99.90;;;;;;4235442;28;20297;-86
2022/11/10 02:48:10;;;;;;;14.95;13.68;;;10.00;99.90;;;;;;4235719;28;20081;-86
2022/11/10 02:50:29;;;;;;;15.52;14.38;;;10.00;99.90;;;;;;4218689;28;20127;-86
2022/11/10 02:52:50;;;;;;;15.68;14.35;;;10.00;99.90;;;;;;4232355;28;20043;-86
2022/11/10 02:55:10;;;;;;;16.65;15.07;;;10.00;99.90;;;;;;4216740;28;20051;-86
2022/11/10 02:57:30;;;;;;;15.10;13.80;;;10.00;99.90;;;;;;4235849;28;20074;-86
2022/11/10 02:59:50;;;;;;;16.42;15.15;;;10.00;99.90;;;;;;4227758;28;20046;-86
2022/11/10 03:02:10;;;;;;;17.02;15.40;;;10.10;99.90;;;;;;4230815;28;20078;-86
2022/11/10 03:04:30;;;;;;;17.45;15.35;;;10.10;99.90;;;;;;4236265;28;20046;-86
2022/11/10 03:06:49;;;;;;;15.18;13.88;;;10.10;99.90;;;;;;4235376;28;20374;-86
2022/11/10 03:09:10;;;;;;;15.20;13.95;;;10.10;99.90;;;;;;4233565;28;20074;-86
2022/11/10 03:11:29;;;;;;;14.30;13.13;;;10.10;99.90;;;;;;4234314;28;20034;-86
2022/11/10 03:13:51;;;;;;;16.00;14.63;;;10.00;99.90;;;;;;4226854;28;20046;-86
2022/11/10 03:16:21;;;;;;;15.50;14.07;;;10.00;99.90;;;;;;4232673;28;20228;-86
2022/11/10 03:18:41;;;;;;;15.80;14.35;;;10.00;99.90;;;;;;4229138;28;20063;-86
2022/11/10 03:21:01;;;;;;;15.60;14.43;;;9.90;99.90;;;;;;4227519;28;20044;-86
2022/11/10 03:23:21;;;;;;;16.42;15.15;;;9.90;99.90;;;;;;4229288;28;20055;-86
2022/11/10 03:25:41;;;;;;;15.02;13.85;;;9.90;99.90;;;;;;4228099;28;20879;-85
2022/11/10 03:28:01;;;;;;;14.85;13.80;;;9.90;99.90;;;;;;4228676;28;20047;-86
2022/11/10 03:30:21;;;;;;;14.25;13.13;;;9.90;99.90;;;;;;4230878;28;20081;-86
2022/11/10 03:32:41;;;;;;;13.25;12.35;;;9.90;99.90;;;;;;4229834;28;20078;-86
2022/11/10 03:35:01;;;;;;;15.48;14.25;;;9.90;99.90;;;;;;4234407;28;20051;-87
2022/11/10 03:37:21;;;;;;;14.80;13.68;;;9.90;99.90;;;;;;4232676;28;20039;-86
2022/11/10 03:39:40;;;;;;;15.30;13.98;;;9.90;99.90;;;;;;4230337;28;20100;-86
2022/11/10 03:42:00;;;;;;;14.82;13.73;;;9.90;99.90;;;;;;4221647;28;20035;-87
2022/11/10 03:44:20;;;;;;;16.80;15.27;;;10.00;99.90;;;;;;4235730;28;20059;-87
2022/11/10 03:46:39;;;;;;;17.23;15.10;;;10.00;99.90;;;;;;4234119;28;20235;-86
2022/11/10 03:49:02;;;;;;;14.23;13.18;;;10.00;99.90;;;;;;4233425;28;20065;-86
2022/11/10 03:51:22;;;;;;;15.10;13.63;;;10.00;99.90;;;;;;4232142;28;20097;-87
2022/11/10 03:53:42;;;;;;;15.23;14.15;;;10.00;99.90;;;;;;4235131;28;20088;-86
2022/11/10 03:56:03;;;;;;;14.63;13.15;;;10.10;99.90;;;;;;4224536;28;20362;-86
2022/11/10 03:58:23;;;;;;;14.77;13.48;;;10.00;99.90;;;;;;4232752;28;20383;-86
2022/11/10 04:00:43;;;;;;;15.13;13.95;;;10.00;99.90;;;;;;4231428;28;20111;-86
2022/11/10 04:03:02;;;;;;;14.57;13.50;;;10.00;99.90;;;;;;4233234;28;20063;-86
2022/11/10 04:10:40;;;;;;;15.48;14.23;;;10.00;99.90;;;;;;4231027;28;20039;-86
2022/11/10 04:15:41;;;;;;;15.00;13.90;;;10.10;99.90;;;;;;4231524;28;20046;-86
2022/11/10 04:18:33;;;;;;;15.43;14.13;;;10.10;99.90;;;;;;4228385;28;20404;-86
2022/11/10 04:20:47;;;;;;;15.10;14.10;;;10.10;99.90;;;;;;4228380;28;20051;-86
2022/11/10 04:26:27;;;;;;;13.15;12.27;;;10.10;99.90;;;;;;4230508;28;20046;-86
2022/11/10 04:28:25;;;;;;;11.75;10.95;;;10.10;99.90;;;;;;4229722;28;20257;-86
2022/11/10 04:30:45;;;;;;;12.13;11.27;;;10.10;99.90;;;;;;4232545;28;20107;-86
2022/11/10 04:33:04;;;;;;;11.30;10.60;;;10.10;99.90;;;;;;4230989;28;20063;-86
2022/11/10 04:35:24;;;;;;;13.00;12.10;;;10.10;99.90;;;;;;4230541;28;20059;-86
2022/11/10 04:37:46;;;;;;;10.18;9.38;;;10.10;99.90;;;;;;4229951;28;20043;-86
2022/11/10 04:40:06;;;;;;;10.55;9.95;;;10.10;99.90;;;;;;4223190;28;20369;-85
2022/11/10 04:42:26;;;;;;;10.07;9.38;;;10.10;99.90;;;;;;4221772;28;20085;-87
2022/11/10 04:44:46;;;;;;;9.63;8.82;;;10.10;99.90;;;;;;4231220;28;20447;-86
2022/11/10 04:47:05;;;;;;;8.80;8.45;;;10.10;99.90;;;;;;4227548;28;20378;-86
2022/11/10 04:49:31;;;;;;;12.05;11.15;;;10.20;99.90;;;;;;4230275;28;20043;-86
2022/11/10 04:51:51;;;;;;;11.55;10.77;;;10.20;99.90;;;;;;4225010;28;20047;-85
2022/11/10 04:54:11;;;;;;;13.15;12.40;;;10.20;99.90;;;;;;4228857;28;20103;-86
2022/11/10 04:56:33;;;;;;;15.10;13.57;;;10.20;99.90;;;;;;4228265;28;20428;-86
2022/11/10 04:58:53;;;;;;;14.68;13.20;;;10.10;99.90;;;;;;4228695;28;20055;-86
2022/11/10 05:01:19;;;;;;;10.68;10.20;;;10.10;99.90;;;;;;4220834;28;20063;-86
2022/11/10 05:03:39;;;;;;;12.70;11.70;;;10.10;99.90;;;;;;4233964;28;20050;-86
2022/11/10 05:05:59;;;;;;;12.98;11.93;;;10.10;99.90;;;;;;4216417;28;20044;-86
2022/11/10 05:08:18;;;;;;;14.90;13.50;;;10.10;99.90;;;;;;4230060;28;20078;-86
2022/11/10 05:10:38;;;;;;;10.80;10.00;;;10.00;99.90;;;;;;4231000;28;20055;-86
2022/11/10 05:12:58;;;;;;;11.02;10.45;;;10.00;99.90;;;;;;4230100;28;20231;-86
2022/11/10 05:15:18;;;;;;;10.25;9.75;;;10.10;99.90;;;;;;4232765;28;20055;-86
2022/11/10 05:17:38;;;;;;;10.77;10.10;;;10.10;99.90;;;;;;4229440;28;20043;-85
2022/11/10 05:19:57;;;;;;;10.00;9.60;;;10.00;99.90;;;;;;4229795;28;20080;-86
2022/11/10 05:22:17;;;;;;;12.57;11.65;;;10.00;99.90;;;;;;4217074;28;20119;-86
2022/11/10 05:24:37;;;;;;;11.68;10.85;;;10.00;99.90;;;;;;4230946;28;20047;-86
2022/11/10 05:26:57;;;;;;;11.70;10.75;;;10.00;99.90;;;;;;4229124;28;20096;-86
2022/11/10 05:29:16;;;;;;;11.75;10.98;;;10.10;99.90;;;;;;4214060;28;20062;-86
2022/11/10 05:31:36;;;;;;;10.60;9.85;;;10.00;99.90;;;;;;4233074;28;20051;-86
2022/11/10 05:33:57;;;;;;;11.20;10.50;;;10.00;99.90;;;;;;4237188;28;20100;-86
2022/11/10 05:36:16;;;;;;;10.15;9.52;;;10.00;99.90;;;;;;4222963;28;20101;-85
2022/11/10 05:38:36;;;;;;;9.95;9.43;;;10.10;99.90;;;;;;4231604;28;20107;-85
2022/11/10 05:41:02;;;;;;;8.90;8.23;;;10.10;99.90;;;;;;4231123;28;20077;-86
2022/11/10 05:43:23;;;;;;;8.10;7.80;;;10.10;99.90;;;;;;4217010;28;20084;-86
2022/11/10 05:45:43;;;;;;;7.88;7.35;;;10.10;99.90;;;;;;4211292;28;20051;-86
2022/11/10 05:48:03;;;;;;;8.68;8.23;;;10.10;99.90;;;;;;4227761;28;20059;-85
2022/11/10 05:50:24;;;;;;;9.23;8.73;;;10.10;99.90;;;;;;4232388;28;20047;-86
2022/11/10 05:52:47;;;;;;;10.93;10.38;;;10.10;99.90;;;;;;4231919;28;20051;-86
2022/11/10 05:55:11;;;;;;;13.63;12.70;;;10.10;99.90;;;;;;4213556;28;20361;-86
2022/11/10 05:57:32;;;;;;;16.95;15.55;;;10.00;99.90;;;;;;4227237;28;20058;-86
2022/11/10 05:59:51;;;;;;;15.93;14.73;;;9.90;99.90;;;;;;4229467;28;20051;-85
2022/11/10 06:02:11;;;;;;;16.05;14.48;;;9.90;99.90;;;;;;4229638;28;20146;-86
2022/11/10 06:04:31;;;;;;;17.15;15.50;;;9.80;99.90;;;;;;4229179;28;20090;-86
2022/11/10 06:06:50;;;;;;;17.70;16.10;;;9.80;99.90;;;;;;4230820;28;20309;-86
2022/11/10 06:09:10;;;;;;;15.55;14.07;;;9.70;99.90;;;;;;4229161;28;20318;-86
2022/11/10 06:11:30;;;;;;;16.58;15.23;;;9.70;99.90;;;;;;4229794;28;20051;-85
2022/11/10 06:13:50;;;;;;;15.75;14.68;;;9.70;99.90;;;;;;4228803;28;20042;-85
2022/11/10 06:16:09;;;;;;;16.60;15.40;;;9.80;99.90;;;;;;4227416;28;20362;-86
2022/11/10 06:18:29;;;;;;;16.95;15.35;;;9.80;99.90;;;;;;4229739;28;20243;-86
2022/11/10 06:20:48;;;;;;;15.45;14.43;;;9.80;99.90;;;;;;4229123;28;20050;-87
2022/11/10 06:23:12;;;;;;;16.27;14.63;;;9.80;99.90;;;;;;4220563;28;20042;-87
2022/11/10 06:25:34;;;;;;;14.88;13.80;;;9.90;99.90;;;;;;4221699;28;20069;-87
2022/11/10 06:27:55;;;;;;;17.40;15.93;;;9.80;99.90;;;;;;4213339;28;20087;-87
2022/11/10 06:30:15;;;;;;;15.38;13.82;;;9.80;99.90;;;;;;4214055;28;20047;-87
2022/11/10 06:32:34;;;;;;;14.95;13.93;;;9.90;99.90;;;;;;4228670;28;20067;-87
2022/11/10 06:34:55;;;;;;;14.25;12.82;;;9.90;99.90;;;;;;4223685;28;20047;-86
2022/11/10 06:37:19;;;;;;;13.57;12.50;;;9.90;99.90;;;;;;4229099;28;20039;-87
2022/11/10 06:39:39;;;;;;;12.48;11.65;;;9.90;99.90;;;;;;4216799;28;20093;-87
2022/11/10 06:41:59;;;;;;;13.60;12.55;;;9.90;99.90;;;;;;4223217;28;20054;-87
2022/11/10 06:44:19;;;;;;;15.98;11.40;;;10.00;99.90;;;;;;4228415;28;20093;-85
2022/11/10 06:46:39;;;;;;;12.90;11.95;;;10.00;99.90;;;;;;4221321;28;20086;-85
2022/11/10 06:49:02;;;;;;;12.52;11.73;;;10.10;99.90;;;;;;4221824;28;20051;-84
2022/11/10 06:51:22;;;;;;;11.45;10.65;;;10.10;99.90;;;;;;4218911;28;20143;-84
2022/11/10 06:53:42;;;;;;;11.60;10.88;;;10.20;99.90;;;;;;4220586;28;20107;-83
2022/11/10 06:56:02;;;;;;;11.02;10.15;;;10.20;99.90;;;;;;4230982;28;20073;-83
2022/11/10 06:58:21;;;;;;;10.80;9.93;;;10.30;99.90;;;;;;4230358;28;20136;-83
2022/11/10 07:00:41;;;;;;;9.45;8.85;;;10.40;99.90;;;;;;4231650;28;20395;-83
2022/11/10 07:03:03;;;;;;;9.52;9.13;;;10.40;99.90;;;;;;4219155;28;20108;-83
2022/11/10 07:05:23;;;;;;;13.43;12.63;;;10.50;99.90;;;;;;4221441;28;20051;-83
2022/11/10 07:07:43;;;;;;;11.13;10.25;;;10.50;99.90;;;;;;4227695;28;20043;-83
2022/11/10 07:10:03;;;;;;;14.40;13.25;;;10.60;99.90;;;;;;4233115;28;20043;-83
2022/11/10 07:12:27;;;;;;;15.68;14.13;;;10.60;99.90;;;;;;4229418;28;20055;-83
2022/11/10 07:14:46;;;;;;;16.70;15.10;;;10.70;99.90;;;;;;4224334;28;20099;-83
2022/11/10 07:17:07;;;;;;;27.80;20.48;;;10.70;99.90;;;;;;4230771;28;20047;-83
2022/11/10 07:19:26;;;;;;;17.60;15.95;;;10.70;99.90;;;;;;4229437;28;20055;-83
2022/11/10 07:21:46;;;;;;;16.85;15.38;;;10.70;99.90;;;;;;4227667;28;20108;-84
2022/11/10 07:24:06;;;;;;;15.27;13.82;;;10.80;99.90;;;;;;4225480;28;20082;-83
2022/11/10 07:26:26;;;;;;;14.15;13.13;;;10.90;99.90;;;;;;4225822;28;20047;-83
2022/11/10 07:28:46;;;;;;;15.20;13.85;;;10.90;99.90;;;;;;4227980;28;20082;-83
2022/11/10 07:31:06;;;;;;;14.90;13.52;;;11.00;99.90;;;;;;4218704;28;20051;-83
2022/11/10 07:33:25;;;;;;;14.82;13.63;;;11.00;99.90;;;;;;4231735;28;20081;-83
2022/11/10 07:36:04;;;;;;;16.73;15.40;;;11.10;99.90;;;;;;4229866;28;20084;-83
2022/11/10 07:38:23;;;;;;;13.13;12.10;;;11.10;99.90;;;;;;4230515;28;20080;-83
2022/11/10 07:40:43;;;;;;;18.17;16.30;;;11.10;99.90;;;;;;4232332;28;20054;-83
2022/11/10 07:43:03;;;;;;;11.07;10.48;;;11.10;99.90;;;;;;4235499;28;20090;-83
2022/11/10 07:45:24;;;;;;;15.25;14.10;;;11.20;99.90;;;;;;4229014;28;20235;-83
2022/11/10 07:47:43;;;;;;;11.55;10.55;;;11.30;99.90;;;;;;4230638;28;20194;-83
2022/11/10 07:50:04;;;;;;;14.30;13.45;;;11.40;99.90;;;;;;4233640;28;20050;-83
2022/11/10 07:52:24;;;;;;;15.15;14.00;;;11.50;99.90;;;;;;4236603;28;20108;-83
2022/11/10 07:54:43;;;;;;;11.05;10.40;;;11.60;99.90;;;;;;4235351;28;20105;-83
2022/11/10 07:57:03;;;;;;;15.07;13.88;;;11.60;99.90;;;;;;4231672;28;20119;-83
2022/11/10 07:59:23;;;;;;;11.20;10.43;;;11.70;99.90;;;;;;4233162;28;20042;-84
2022/11/10 08:01:44;;;;;;;11.70;11.10;;;11.80;99.90;;;;;;4226026;28;20051;-84
2022/11/10 08:04:04;;;;;;;11.35;10.65;;;11.80;99.90;;;;;;4229487;28;20230;-83
2022/11/10 08:06:24;;;;;;;10.85;10.20;;;11.80;99.90;;;;;;4233293;28;20039;-83
2022/11/10 08:08:46;;;;;;;10.27;9.52;;;11.80;99.90;;;;;;4229325;28;20145;-83
2022/11/10 08:11:05;;;;;;;11.30;10.60;;;11.80;99.90;;;;;;4229425;28;20038;-83
2022/11/10 08:13:25;;;;;;;11.15;10.15;;;11.80;99.90;;;;;;4219151;28;20090;-83
2022/11/10 08:15:45;;;;;;;16.52;10.73;;;11.80;99.90;;;;;;4228410;28;20086;-84
2022/11/10 08:18:19;;;;;;;9.68;8.82;;;11.90;99.90;;;;;;4226653;28;20235;-84
2022/11/10 08:20:39;;;;;;;10.90;10.02;;;11.90;99.90;;;;;;4229873;28;20369;-84
2022/11/10 08:23:04;;;;;;;10.55;9.90;;;11.90;99.90;;;;;;4231941;28;20059;-84
2022/11/10 08:25:24;;;;;;;9.13;8.73;;;12.00;99.90;;;;;;4214302;28;20243;-84
2022/11/10 08:27:46;;;;;;;10.90;10.30;;;12.00;99.90;;;;;;4226242;28;20079;-84
2022/11/10 08:30:07;;;;;;;26.33;22.98;;;12.00;99.90;;;;;;4218365;28;20051;-84
2022/11/10 08:32:26;;;;;;;12.65;11.65;;;12.10;99.90;;;;;;4236247;28;20042;-84
2022/11/10 08:34:46;;;;;;;9.20;8.45;;;12.10;99.90;;;;;;4229055;28;20042;-84
2022/11/10 08:37:06;;;;;;;9.68;8.93;;;12.20;99.90;;;;;;4220326;28;20043;-84
2022/11/10 08:39:26;;;;;;;8.75;8.45;;;12.30;99.90;;;;;;4225720;28;20059;-84
2022/11/10 08:41:58;;;;;;;7.72;7.30;;;12.40;99.90;;;;;;4220916;28;20077;-84
2022/11/10 08:44:18;;;;;;;6.72;6.22;;;12.50;99.90;;;;;;4232919;28;20362;-84
2022/11/10 08:46:43;;;;;;;10.43;8.52;;;12.50;99.90;;;;;;4230586;28;20039;-84
2022/11/10 08:49:03;;;;;;;9.98;9.25;;;12.50;99.90;;;;;;4231275;28;20047;-84
2022/11/10 08:51:23;;;;;;;8.35;7.95;;;12.50;99.90;;;;;;4229505;28;20039;-84
2022/11/10 08:53:42;;;;;;;21.42;19.42;;;12.60;99.90;;;;;;4233434;28;20047;-84
2022/11/10 08:56:02;;;;;;;18.02;16.40;;;12.70;99.90;;;;;;4227580;28;20047;-84
2022/11/10 08:58:23;;;;;;;7.40;7.10;;;12.70;99.90;;;;;;4229527;28;20051;-84
2022/11/10 09:00:43;;;;;;;5.20;4.88;;;12.80;99.90;;;;;;4231010;28;20115;-84
2022/11/10 09:03:10;;;;;;;9.25;8.75;;;13.00;99.90;;;;;;4215459;28;20078;-84
2022/11/10 09:05:30;;;;;;;5.68;5.22;;;13.20;99.90;;;;;;4221596;28;20085;-84
2022/11/10 09:07:50;;;;;;;5.60;5.45;;;13.30;99.90;;;;;;4228405;28;20377;-84
2022/11/10 09:10:10;;;;;;;6.43;6.18;;;13.40;99.90;;;;;;4231073;28;20042;-84
2022/11/10 09:12:30;;;;;;;4.68;4.40;;;13.40;99.90;;;;;;4228264;28;20043;-83
2022/11/10 09:14:50;;;;;;;4.97;4.68;;;13.50;99.90;;;;;;4227053;28;20044;-83
2022/11/10 09:17:10;;;;;;;6.60;5.80;;;13.70;99.90;;;;;;4214832;28;20047;-83
2022/11/10 09:19:29;;;;;;;28.48;20.50;;;13.80;99.90;;;;;;4224931;28;20050;-83
2022/11/10 09:21:49;;;;;;;11.13;10.07;;;13.90;99.90;;;;;;4212007;28;20043;-83
2022/11/10 09:24:09;;;;;;;6.93;6.38;;;13.90;99.90;;;;;;4231083;28;20051;-83
2022/11/10 09:26:29;;;;;;;6.47;6.18;;;13.90;99.90;;;;;;4216853;28;20039;-83
2022/11/10 09:28:49;;;;;;;7.45;6.78;;;13.90;99.90;;;;;;4228418;28;20055;-83
2022/11/10 09:31:09;;;;;;;8.82;8.02;;;14.00;99.90;;;;;;4233637;28;20073;-83
2022/11/10 09:33:28;;;;;;;7.78;7.28;;;14.10;99.90;;;;;;4227924;28;20051;-83
2022/11/10 09:35:48;;;;;;;9.23;8.48;;;14.10;99.90;;;;;;4226607;28;20051;-83
2022/11/10 09:38:08;;;;;;;8.23;7.72;;;14.10;99.90;;;;;;4230203;28;20042;-83
2022/11/10 09:40:58;;;;;;;11.07;10.10;;;14.20;99.90;;;;;;4230351;28;20046;-83
2022/11/10 09:43:41;;;;;;;9.40;8.65;;;14.20;99.90;;;;;;4218434;28;20047;-83
2022/11/10 09:46:08;;;;;;;9.95;9.07;;;14.10;99.90;;;;;;4213765;28;20040;-83
2022/11/10 09:48:31;;;;;;;7.65;7.18;;;14.10;99.90;;;;;;4228271;28;20078;-83
2022/11/10 09:50:52;;;;;;;;;;;14.20;99.90;;;;;;4231243;28;20124;-83
2022/11/10 09:53:21;;;;;;;9.23;8.63;;;14.20;99.90;;;;;;4215369;28;19998;-83
2022/11/10 09:55:47;;;;;;;8.23;7.68;;;14.20;99.90;;;;;;4223059;28;20103;-83
2022/11/10 09:58:11;;;;;;;8.73;8.18;;;14.30;99.90;;;;;;4229375;28;20239;-83
2022/11/10 10:00:34;;;;;;;6.40;6.00;;;14.30;99.90;;;;;;4225974;28;20081;-83
2022/11/10 10:02:59;;;;;;;5.50;5.18;;;14.30;99.90;;;;;;4223965;28;20278;-83
2022/11/10 10:05:25;;;;;;;4.97;4.78;;;14.40;99.90;;;;;;4212351;28;20060;-83
2022/11/10 10:08:21;;;;;;;4.78;4.60;;;14.50;99.90;;;;;;4228729;28;20039;-83
2022/11/10 10:10:50;;;;;;;4.88;4.65;;;14.60;99.90;;;;;;4204468;28;20119;-83
2022/11/10 10:13:44;;;;;;;5.75;5.43;;;14.60;99.90;;;;;;4235641;28;20051;-83
2022/11/10 10:16:21;;;;;;;7.28;6.75;;;14.60;99.90;;;;;;4231588;28;20082;-83
2022/11/10 10:18:56;;;;;;;4.93;4.40;;;14.60;99.90;;;;;;4214339;28;20403;-83
2022/11/10 10:21:58;;;;;;;6.72;6.40;;;14.60;99.90;;;;;;4222375;28;20035;-83
2022/11/10 10:24:21;;;;;;;6.95;6.57;;;14.70;99.90;;;;;;4219862;28;20047;-83
2022/11/10 10:26:51;;;;;;;3.55;3.45;;;14.80;99.90;;;;;;4232442;28;20078;-83
2022/11/10 10:29:44;;;;;;;8.90;8.10;;;14.80;99.90;;;;;;4228978;28;20246;-83
2022/11/10 10:32:10;;;;;;;5.13;4.93;;;14.90;99.90;;;;;;4195829;28;20103;-83
2022/11/10 10:34:33;;;;;;;5.43;5.13;;;14.90;99.90;;;;;;4221396;28;20120;-83
2022/11/10 10:36:53;;;;;;;5.97;5.72;;;14.90;99.90;;;;;;4218040;28;20066;-83
2022/11/10 10:39:33;;;;;;;8.00;7.30;;;14.90;99.90;;;;;;4235972;28;20050;-83
2022/11/10 10:41:53;;;;;;;5.40;5.15;;;15.00;99.90;;;;;;4220801;28;20043;-83
2022/11/10 10:44:18;;;;;;;6.07;5.57;;;15.00;99.90;;;;;;4228270;28;20050;-83
2022/11/10 10:46:59;;;;;;;5.00;4.60;;;15.00;99.90;;;;;;4230831;28;20373;-83
2022/11/10 10:49:32;;;;;;;6.03;5.47;;;15.00;99.90;;;;;;4228842;28;20126;-83
2022/11/10 10:52:12;;;;;;;4.38;4.07;;;14.90;99.90;;;;;;4232717;28;20373;-83
2022/11/10 10:54:35;;;;;;;6.45;6.00;;;15.00;99.90;;;;;;4214251;28;20067;-83
2022/11/10 10:57:24;;;;;;;12.45;11.18;;;15.00;99.90;;;;;;4234118;28;20122;-83
2022/11/10 10:59:44;;;;;;;8.20;7.40;;;14.90;99.90;;;;;;4234526;28;20827;-83
2022/11/10 11:02:27;;;;;;;1282.03;418.23;;;14.90;99.90;;;;;;4225166;28;20116;-83
2022/11/10 11:04:48;;;;;;;179.15;77.13;;;14.90;99.90;;;;;;4230906;28;20292;-83
2022/11/10 11:07:21;;;;;;;1675.38;748.47;;;14.90;99.90;;;;;;4216860;28;20063;-83
2022/11/10 11:09:43;;;;;;;615.08;346.90;;;14.90;99.90;;;;;;4231458;28;20070;-83
2022/11/10 11:12:24;;;;;;;170.50;83.20;;;14.90;99.90;;;;;;4228358;28;20431;-83
2022/11/10 11:14:45;;;;;;;43.35;21.63;;;15.00;99.90;;;;;;4235107;28;20046;-83
2022/11/10 11:17:17;;;;;;;7.70;7.00;;;15.00;99.90;;;;;;4232685;28;20042;-83
2022/11/10 11:19:38;;;;;;;586.22;359.15;;;15.00;99.90;;;;;;4232262;28;20077;-83
2022/11/10 11:22:48;;;;;;;313.50;171.20;;;15.00;99.90;;;;;;4227155;28;20792;-83
2022/11/10 11:25:26;;;;;;;319.33;144.18;;;15.10;99.90;;;;;;4229328;28;20080;-83
2022/11/10 11:27:49;;;;;;;970.97;460.50;;;15.10;99.90;;;;;;4232011;28;20089;-83
2022/11/10 11:30:21;;;;;;;752.08;408.98;;;15.10;99.90;;;;;;4230147;28;20087;-83
2022/11/10 11:33:03;;;;;;;566.30;361.63;;;15.00;99.90;;;;;;4224051;28;20046;-83
2022/11/10 11:35:44;;;;;;;218.75;120.97;;;15.00;99.90;;;;;;4232899;28;20291;-83
2022/11/10 11:38:29;;;;;;;113.28;69.15;;;15.00;99.90;;;;;;4228652;28;20043;-83
2022/11/10 11:41:14;;;;;;;355.27;234.30;;;14.90;99.90;;;;;;4217845;28;20047;-83
2022/11/10 11:44:01;;;;;;;139.25;72.10;;;15.00;99.90;;;;;;4232879;28;20071;-83
2022/11/10 11:46:37;;;;;;;471.40;261.23;;;15.00;99.90;;;;;;4230573;28;20231;-85
2022/11/10 11:49:05;;;;;;;562.80;336.75;;;15.00;99.90;;;;;;4236156;28;20130;-84
2022/11/10 11:51:50;;;;;;;537.35;386.65;;;15.00;99.90;;;;;;4230760;28;20043;-84
2022/11/10 11:54:41;;;;;;;385.75;261.00;;;14.90;99.90;;;;;;4229043;28;20272;-84
2022/11/10 11:57:15;;;;;;;163.95;114.88;;;14.90;99.90;;;;;;4232223;28;20108;-84
2022/11/10 11:59:34;;;;;;;53.75;39.70;;;14.90;99.90;;;;;;4234556;28;20043;-84
2022/11/10 12:02:15;;;;;;;123.15;91.80;;;14.80;99.90;;;;;;4226986;28;20058;-85
2022/11/10 12:05:03;;;;;;;66.28;49.25;;;14.90;99.90;;;;;;4229520;28;20047;-84
2022/11/10 12:07:26;;;;;;;38.60;34.70;;;14.90;99.90;;;;;;4233319;28;20049;-84
2022/11/10 12:10:29;;;;;;;22.92;20.90;;;14.90;99.90;;;;;;4230690;28;20077;-84
2022/11/10 12:12:54;;;;;;;33.13;30.00;;;14.80;99.90;;;;;;4215210;28;20051;-84
2022/11/10 12:15:30;;;;;;;12.07;8.95;;;14.80;99.90;;;;;;4234053;28;20108;-84
2022/11/10 12:18:04;;;;;;;46.38;31.70;;;14.90;99.90;;;;;;4231696;28;20401;-84
2022/11/10 12:20:45;;;;;;;89.32;61.05;;;14.80;99.90;;;;;;4229144;28;20039;-83
2022/11/10 12:23:37;;;;;;;9.50;8.43;;;14.80;99.90;;;;;;4236551;28;20046;-84
2022/11/10 12:26:03;;;;;;;5.53;5.05;;;14.80;99.90;;;;;;4227883;28;20395;-83
2022/11/10 12:28:30;;;;;;;20.15;16.45;;;14.70;99.90;;;;;;4227111;28;20055;-84